Time,TemperatureF,DewpointF,PressureIn,WindDirection,WindDirectionDegrees,WindSpeedMPH,WindSpeedGustMPH,Humidity,HourlyPrecipIn,Conditions,Clouds,dailyrainin,SoftwareType,DateUTC
2013-03-07 00:02:00,23.0,16.5,29.32,ENE,68,0.0,0.0,76,0.00,,,0.00,WUHU216HW,2013-03-07 06:02:00,
2013-03-07 00:07:00,22.8,16.6,29.33,ENE,68,0.0,0.0,77,0.00,,,0.00,WUHU216HW,2013-03-07 06:07:00,
2013-03-07 00:12:00,22.8,16.6,29.32,ENE,68,0.0,0.0,77,0.00,,,0.00,WUHU216HW,2013-03-07 06:12:00,
2013-03-07 00:17:00,23.1,17.0,29.33,ENE,68,0.0,0.0,77,0.00,,,0.00,WUHU216HW,2013-03-07 06:17:00,
2013-03-07 00:22:00,23.3,17.2,29.32,ENE,68,0.0,0.0,77,0.00,,,0.00,WUHU216HW,2013-03-07 06:22:00,
2013-03-07 00:28:00,23.3,17.2,29.32,ENE,68,0.0,0.0,77,0.00,,,0.00,WUHU216HW,2013-03-07 06:28:00,
2013-03-07 00:33:00,23.1,17.0,29.32,ENE,68,0.0,0.0,77,0.00,,,0.00,WUHU216HW,2013-03-07 06:33:00,
2013-03-07 00:38:00,23.0,16.8,29.33,ENE,68,0.0,0.0,77,0.00,,,0.00,WUHU216HW,2013-03-07 06:38:00,
2013-03-07 00:43:00,22.8,16.6,29.33,ENE,68,0.0,0.0,77,0.00,,,0.00,WUHU216HW,2013-03-07 06:43:00,
2013-03-07 00:48:00,22.8,16.6,29.32,ENE,68,0.0,0.0,77,0.00,,,0.00,WUHU216HW,2013-03-07 06:48:00,
2013-03-07 00:53:00,22.6,16.5,29.33,ENE,68,0.0,0.0,77,0.00,,,0.00,WUHU216HW,2013-03-07 06:53:00,
2013-03-07 00:58:00,22.6,16.5,29.33,ENE,68,0.0,0.0,77,0.00,,,0.00,WUHU216HW,2013-03-07 06:58:00,
2013-03-07 01:03:00,22.4,16.3,29.33,ENE,68,0.0,0.0,77,0.00,,,0.00,WUHU216HW,2013-03-07 07:03:00,
2013-03-07 01:08:00,22.2,16.1,29.33,ENE,68,0.0,0.0,77,0.00,,,0.00,WUHU216HW,2013-03-07 07:08:00,
2013-03-07 01:13:00,22.4,16.6,29.33,ENE,68,0.0,0.0,78,0.00,,,0.00,WUHU216HW,2013-03-07 07:13:00,
2013-03-07 01:18:00,22.2,16.4,29.34,ENE,68,0.0,0.0,78,0.00,,,0.00,WUHU216HW,2013-03-07 07:18:00,
2013-03-07 01:23:00,22.2,16.4,29.33,ENE,68,0.0,0.0,78,0.00,,,0.00,WUHU216HW,2013-03-07 07:23:00,
2013-03-07 01:28:00,22.6,16.8,29.34,ENE,68,0.0,0.0,78,0.00,,,0.00,WUHU216HW,2013-03-07 07:28:00,
2013-03-07 01:33:00,22.6,16.8,29.34,ENE,68,0.0,0.0,78,0.00,,,0.00,WUHU216HW,2013-03-07 07:33:00,
2013-03-07 01:38:00,22.6,16.8,29.34,ENE,68,0.0,0.0,78,0.00,,,0.00,WUHU216HW,2013-03-07 07:38:00,
2013-03-07 01:44:00,22.8,16.9,29.34,ENE,68,0.0,0.0,78,0.00,,,0.00,WUHU216HW,2013-03-07 07:44:00,
2013-03-07 01:49:00,22.8,16.9,29.34,ENE,68,0.0,0.0,78,0.00,,,0.00,WUHU216HW,2013-03-07 07:49:00,
2013-03-07 01:54:00,22.8,17.2,29.34,ENE,68,0.0,0.0,79,0.00,,,0.00,WUHU216HW,2013-03-07 07:54:00,
2013-03-07 01:59:00,22.8,16.9,29.34,ENE,68,0.0,0.0,78,0.00,,,0.00,WUHU216HW,2013-03-07 07:59:00,
2013-03-07 02:04:00,22.8,16.9,29.34,ENE,68,0.0,0.0,78,0.00,,,0.00,WUHU216HW,2013-03-07 08:04:00,
2013-03-07 02:09:00,22.8,16.9,29.34,ENE,68,0.0,0.0,78,0.00,,,0.00,WUHU216HW,2013-03-07 08:09:00,
2013-03-07 02:14:00,22.6,16.8,29.33,ENE,68,0.0,0.0,78,0.00,,,0.00,WUHU216HW,2013-03-07 08:14:00,
2013-03-07 02:19:00,22.8,17.2,29.33,East,90,0.0,0.0,79,0.00,,,0.00,WUHU216HW,2013-03-07 08:19:00,
2013-03-07 02:25:00,22.8,17.2,29.33,East,90,0.0,0.0,79,0.00,,,0.00,WUHU216HW,2013-03-07 08:25:00,
2013-03-07 02:30:00,22.8,17.2,29.33,East,90,0.0,0.0,79,0.00,,,0.00,WUHU216HW,2013-03-07 08:30:00,
2013-03-07 02:35:00,22.8,16.9,29.33,East,90,0.0,0.0,78,0.00,,,0.00,WUHU216HW,2013-03-07 08:35:00,
2013-03-07 02:40:00,22.8,16.9,29.33,East,90,0.0,0.0,78,0.00,,,0.00,WUHU216HW,2013-03-07 08:40:00,
2013-03-07 02:45:00,22.8,16.9,29.33,East,90,0.0,0.0,78,0.00,,,0.00,WUHU216HW,2013-03-07 08:45:00,
2013-03-07 02:50:00,22.6,16.8,29.33,East,90,0.0,0.0,78,0.00,,,0.00,WUHU216HW,2013-03-07 08:50:00,
2013-03-07 02:55:00,22.6,16.8,29.32,East,90,0.0,0.0,78,0.00,,,0.00,WUHU216HW,2013-03-07 08:55:00,
2013-03-07 03:00:00,22.4,16.6,29.32,East,90,0.0,0.0,78,0.00,,,0.00,WUHU216HW,2013-03-07 09:00:00,
2013-03-07 03:05:00,22.2,16.4,29.32,East,90,0.0,0.0,78,0.00,,,0.00,WUHU216HW,2013-03-07 09:05:00,
2013-03-07 03:10:00,22.1,16.5,29.31,East,90,0.0,0.0,79,0.00,,,0.00,WUHU216HW,2013-03-07 09:10:00,
2013-03-07 03:15:00,22.2,16.7,29.32,East,90,0.0,0.0,79,0.00,,,0.00,WUHU216HW,2013-03-07 09:15:00,
2013-03-07 03:20:00,22.4,17.2,29.31,East,90,0.0,0.0,80,0.00,,,0.00,WUHU216HW,2013-03-07 09:20:00,
2013-03-07 03:25:00,22.8,17.6,29.31,ESE,113,0.0,0.0,80,0.00,,,0.00,WUHU216HW,2013-03-07 09:25:00,
2013-03-07 03:30:00,22.8,17.6,29.31,East,90,0.0,3.8,80,0.00,,,0.00,WUHU216HW,2013-03-07 09:30:00,
2013-03-07 03:35:00,22.8,17.2,29.31,East,90,0.0,3.8,79,0.00,,,0.00,WUHU216HW,2013-03-07 09:35:00,
2013-03-07 03:40:00,22.8,17.2,29.32,East,90,0.0,0.0,79,0.00,,,0.00,WUHU216HW,2013-03-07 09:40:00,
2013-03-07 03:45:00,22.8,17.2,29.31,East,90,0.0,0.0,79,0.00,,,0.00,WUHU216HW,2013-03-07 09:45:00,
2013-03-07 03:50:00,22.6,17.1,29.32,East,90,0.0,0.0,79,0.00,,,0.00,WUHU216HW,2013-03-07 09:50:00,
2013-03-07 03:56:00,22.2,16.7,29.32,East,90,0.0,0.0,79,0.00,,,0.00,WUHU216HW,2013-03-07 09:56:00,
2013-03-07 04:01:00,22.2,16.7,29.31,East,90,0.0,0.0,79,0.00,,,0.00,WUHU216HW,2013-03-07 10:01:00,
2013-03-07 04:06:00,22.2,16.7,29.31,East,90,0.0,0.0,79,0.00,,,0.00,WUHU216HW,2013-03-07 10:06:00,
2013-03-07 04:11:00,22.2,16.7,29.31,East,90,0.0,0.0,79,0.00,,,0.00,WUHU216HW,2013-03-07 10:11:00,
2013-03-07 04:16:00,22.2,17.0,29.31,East,90,0.0,0.0,80,0.00,,,0.00,WUHU216HW,2013-03-07 10:16:00,
2013-03-07 04:21:00,22.1,16.8,29.30,East,90,0.0,0.0,80,0.00,,,0.00,WUHU216HW,2013-03-07 10:21:00,
2013-03-07 04:26:00,21.9,16.3,29.31,East,90,0.0,0.0,79,0.00,,,0.00,WUHU216HW,2013-03-07 10:26:00,
2013-03-07 04:31:00,21.9,16.3,29.30,East,90,0.0,0.0,79,0.00,,,0.00,WUHU216HW,2013-03-07 10:31:00,
2013-03-07 04:36:00,21.9,16.7,29.30,ENE,68,0.0,0.0,80,0.00,,,0.00,WUHU216HW,2013-03-07 10:36:00,
2013-03-07 04:41:00,22.1,16.8,29.30,ENE,68,0.0,0.0,80,0.00,,,0.00,WUHU216HW,2013-03-07 10:41:00,
2013-03-07 04:46:00,21.9,16.7,29.29,ESE,113,0.0,0.0,80,0.00,,,0.00,WUHU216HW,2013-03-07 10:46:00,
2013-03-07 04:51:00,21.9,16.7,29.30,ENE,68,0.0,0.0,80,0.00,,,0.00,WUHU216HW,2013-03-07 10:51:00,
2013-03-07 04:56:00,21.9,16.7,29.30,ENE,68,0.0,0.0,80,0.00,,,0.00,WUHU216HW,2013-03-07 10:56:00,
2013-03-07 05:01:00,21.9,16.7,29.30,ENE,68,0.0,0.0,80,0.00,,,0.00,WUHU216HW,2013-03-07 11:01:00,
2013-03-07 05:06:00,21.9,16.9,29.30,ENE,68,0.0,0.0,81,0.00,,,0.00,WUHU216HW,2013-03-07 11:06:00,
2013-03-07 05:11:00,22.8,17.6,29.31,ESE,113,0.0,0.0,80,0.00,,,0.00,WUHU216HW,2013-03-07 11:11:00,
2013-03-07 05:17:00,23.0,17.7,29.31,ESE,113,0.0,0.0,80,0.00,,,0.00,WUHU216HW,2013-03-07 11:17:00,
2013-03-07 05:22:00,23.1,17.9,29.31,ESE,113,0.0,0.0,80,0.00,,,0.00,WUHU216HW,2013-03-07 11:22:00,
2013-03-07 05:27:00,23.1,17.9,29.31,ESE,113,0.0,0.0,80,0.00,,,0.00,WUHU216HW,2013-03-07 11:27:00,
2013-03-07 05:32:00,23.1,17.6,29.31,ESE,113,0.0,0.0,79,0.00,,,0.00,WUHU216HW,2013-03-07 11:32:00,
2013-03-07 05:37:00,23.1,17.6,29.31,ENE,68,0.0,0.0,79,0.00,,,0.00,WUHU216HW,2013-03-07 11:37:00,
2013-03-07 05:42:00,23.5,18.3,29.31,ESE,113,0.0,0.0,80,0.00,,,0.00,WUHU216HW,2013-03-07 11:42:00,
2013-03-07 05:47:00,23.5,17.9,29.31,ESE,113,0.0,0.0,79,0.00,,,0.00,WUHU216HW,2013-03-07 11:47:00,
2013-03-07 05:52:00,23.5,17.9,29.30,ESE,113,0.0,0.0,79,0.00,,,0.00,WUHU216HW,2013-03-07 11:52:00,
2013-03-07 05:57:00,23.7,18.1,29.30,East,90,0.0,0.0,79,0.00,,,0.00,WUHU216HW,2013-03-07 11:57:00,
2013-03-07 06:02:00,23.5,17.9,29.30,East,90,0.0,0.0,79,0.00,,,0.00,WUHU216HW,2013-03-07 12:02:00,
2013-03-07 06:07:00,23.5,17.9,29.30,ESE,113,0.0,2.4,79,0.00,,,0.00,WUHU216HW,2013-03-07 12:07:00,
2013-03-07 06:12:00,23.5,17.9,29.30,ESE,113,0.0,2.4,79,0.00,,,0.00,WUHU216HW,2013-03-07 12:12:00,
2013-03-07 06:17:00,23.5,17.9,29.31,East,90,0.0,4.4,79,0.00,,,0.00,WUHU216HW,2013-03-07 12:17:00,
2013-03-07 06:23:00,23.5,17.9,29.31,East,90,0.0,5.1,79,0.00,,,0.00,WUHU216HW,2013-03-07 12:23:00,
2013-03-07 06:28:00,23.5,17.9,29.31,East,90,0.0,5.1,79,0.00,,,0.00,WUHU216HW,2013-03-07 12:28:00,
2013-03-07 06:33:00,23.5,17.9,29.31,East,90,0.0,0.0,79,0.00,,,0.00,WUHU216HW,2013-03-07 12:33:00,
2013-03-07 06:38:00,23.5,17.9,29.31,East,90,0.0,0.0,79,0.00,,,0.00,WUHU216HW,2013-03-07 12:38:00,
2013-03-07 06:43:00,23.3,17.8,29.31,East,90,0.0,0.0,79,0.00,,,0.00,WUHU216HW,2013-03-07 12:43:00,
2013-03-07 06:48:00,23.3,17.8,29.31,East,90,0.0,0.0,79,0.00,,,0.00,WUHU216HW,2013-03-07 12:48:00,
2013-03-07 06:53:00,23.1,17.6,29.30,East,90,0.0,0.0,79,0.00,,,0.00,WUHU216HW,2013-03-07 12:53:00,
2013-03-07 06:58:00,23.3,17.8,29.30,East,90,0.0,0.0,79,0.00,,,0.00,WUHU216HW,2013-03-07 12:58:00,
2013-03-07 07:03:00,23.5,17.9,29.30,East,90,0.0,0.0,79,0.00,,,0.00,WUHU216HW,2013-03-07 13:03:00,
2013-03-07 07:09:00,23.9,18.3,29.30,ENE,68,2.0,2.0,79,0.00,,,0.00,WUHU216HW,2013-03-07 13:09:00,
2013-03-07 07:14:00,24.0,18.5,29.30,East,90,5.8,5.8,79,0.00,,,0.00,WUHU216HW,2013-03-07 13:14:00,
2013-03-07 07:19:00,24.6,18.7,29.30,East,90,0.0,5.8,78,0.00,,,0.00,WUHU216HW,2013-03-07 13:19:00,
2013-03-07 07:24:00,25.1,19.2,29.30,East,90,0.0,3.3,78,0.00,,,0.00,WUHU216HW,2013-03-07 13:24:00,
2013-03-07 07:29:00,25.5,19.4,29.30,East,90,0.0,3.3,77,0.00,,,0.00,WUHU216HW,2013-03-07 13:29:00,
2013-03-07 07:34:00,26.0,19.7,29.31,East,90,0.0,0.0,77,0.00,,,0.00,WUHU216HW,2013-03-07 13:34:00,
2013-03-07 07:39:00,26.4,19.7,29.31,ESE,113,0.0,0.0,76,0.00,,,0.00,WUHU216HW,2013-03-07 13:39:00,
2013-03-07 07:44:00,26.9,20.0,29.30,East,90,5.3,5.3,75,0.00,,,0.00,WUHU216HW,2013-03-07 13:44:00,
2013-03-07 07:49:00,27.3,20.3,29.31,East,90,2.2,5.3,75,0.00,,,0.00,WUHU216HW,2013-03-07 13:49:00,
2013-03-07 07:55:00,28.0,20.8,29.31,East,90,0.0,5.3,74,0.00,,,0.00,WUHU216HW,2013-03-07 13:55:00,
2013-03-07 08:00:00,28.5,21.0,29.31,East,90,0.0,2.9,73,0.00,,,0.00,WUHU216HW,2013-03-07 14:00:00,
2013-03-07 08:05:00,28.9,21.0,29.31,ENE,68,3.3,3.3,72,0.00,,,0.00,WUHU216HW,2013-03-07 14:05:00,
2013-03-07 08:10:00,29.3,21.0,29.32,ENE,68,4.4,4.4,71,0.00,,,0.00,WUHU216HW,2013-03-07 14:10:00,
2013-03-07 08:15:00,29.8,21.2,29.32,ENE,68,0.0,4.4,70,0.00,,,0.00,WUHU216HW,2013-03-07 14:15:00,
2013-03-07 08:20:00,30.0,21.7,29.31,ENE,68,7.3,7.3,71,0.00,,,0.00,WUHU216HW,2013-03-07 14:20:00,
2013-03-07 08:25:00,30.7,22.1,29.31,ENE,68,0.0,7.3,70,0.00,,,0.00,WUHU216HW,2013-03-07 14:25:00,
2013-03-07 08:30:00,30.9,21.9,29.31,East,90,4.0,4.0,69,0.00,,,0.00,WUHU216HW,2013-03-07 14:30:00,
2013-03-07 08:35:00,31.6,22.6,29.31,East,90,6.2,6.2,69,0.00,,,0.00,WUHU216HW,2013-03-07 14:35:00,
2013-03-07 08:41:00,32.3,22.9,29.32,ENE,68,6.0,6.2,68,0.00,,,0.00,WUHU216HW,2013-03-07 14:41:00,
2013-03-07 08:46:00,32.9,23.0,29.32,East,90,8.9,8.9,67,0.00,,,0.00,WUHU216HW,2013-03-07 14:46:00,
2013-03-07 08:51:00,33.2,22.6,29.32,East,90,0.0,8.9,65,0.00,,,0.00,WUHU216HW,2013-03-07 14:51:00,
2013-03-07 08:56:00,33.8,23.5,29.32,East,90,5.5,5.5,66,0.00,,,0.00,WUHU216HW,2013-03-07 14:56:00,
2013-03-07 09:01:00,34.3,23.3,29.32,East,90,3.1,6.0,64,0.00,,,0.00,WUHU216HW,2013-03-07 15:01:00,
2013-03-07 09:06:00,34.8,23.9,29.32,East,90,0.0,6.0,64,0.00,,,0.00,WUHU216HW,2013-03-07 15:06:00,
2013-03-07 09:11:00,35.4,24.4,29.32,East,90,6.9,7.3,64,0.00,,,0.00,WUHU216HW,2013-03-07 15:11:00,
2013-03-07 09:16:00,35.7,24.0,29.31,ESE,113,4.2,7.3,62,0.00,,,0.00,WUHU216HW,2013-03-07 15:16:00,
2013-03-07 09:21:00,36.1,24.3,29.32,SE,135,0.0,6.2,62,0.00,,,0.00,WUHU216HW,2013-03-07 15:21:00,
2013-03-07 09:26:00,36.6,24.8,29.32,ESE,113,4.9,6.9,62,0.00,,,0.00,WUHU216HW,2013-03-07 15:26:00,
2013-03-07 09:31:00,37.0,24.4,29.32,ESE,113,1.7,6.9,60,0.00,,,0.00,WUHU216HW,2013-03-07 15:31:00,
2013-03-07 09:36:00,37.2,24.9,29.31,East,90,5.8,6.7,61,0.00,,,0.00,WUHU216HW,2013-03-07 15:36:00,
2013-03-07 09:41:00,37.5,24.9,29.31,ESE,113,4.4,6.2,60,0.00,,,0.00,WUHU216HW,2013-03-07 15:41:00,
2013-03-07 09:47:00,38.1,25.4,29.31,East,90,0.0,6.2,60,0.00,,,0.00,WUHU216HW,2013-03-07 15:47:00,
2013-03-07 09:52:00,38.8,25.2,29.31,SE,135,4.0,4.2,58,0.00,,,0.00,WUHU216HW,2013-03-07 15:52:00,
2013-03-07 09:57:00,39.3,26.1,29.31,East,90,0.0,4.0,59,0.00,,,0.00,WUHU216HW,2013-03-07 15:57:00,
2013-03-07 10:02:00,40.1,25.9,29.31,ESE,113,5.3,5.3,57,0.00,,,0.00,WUHU216HW,2013-03-07 16:02:00,
2013-03-07 10:07:00,40.2,25.7,29.31,East,90,6.9,6.9,56,0.00,,,0.00,WUHU216HW,2013-03-07 16:07:00,
2013-03-07 10:12:00,40.2,26.1,29.31,ESE,113,2.2,6.9,57,0.00,,,0.00,WUHU216HW,2013-03-07 16:12:00,
2013-03-07 10:17:00,41.0,26.4,29.30,ESE,113,4.2,6.9,56,0.00,,,0.00,WUHU216HW,2013-03-07 16:17:00,
2013-03-07 10:22:00,41.1,26.1,29.30,ENE,68,7.6,7.6,55,0.00,,,0.00,WUHU216HW,2013-03-07 16:22:00,
2013-03-07 10:27:00,41.1,26.5,29.30,ESE,113,0.0,7.6,56,0.00,,,0.00,WUHU216HW,2013-03-07 16:27:00,
2013-03-07 10:32:00,41.1,26.1,29.30,SE,135,1.3,8.5,55,0.00,,,0.00,WUHU216HW,2013-03-07 16:32:00,
2013-03-07 10:37:00,41.5,26.9,29.30,SE,135,1.7,8.5,56,0.00,,,0.00,WUHU216HW,2013-03-07 16:37:00,
2013-03-07 10:42:00,42.4,26.8,29.30,East,90,0.0,6.9,54,0.00,,,0.00,WUHU216HW,2013-03-07 16:42:00,
2013-03-07 10:47:00,42.4,26.8,29.30,SE,135,0.0,7.1,54,0.00,,,0.00,WUHU216HW,2013-03-07 16:47:00,
2013-03-07 10:52:00,42.9,26.9,29.30,East,90,5.1,7.1,53,0.00,,,0.00,WUHU216HW,2013-03-07 16:52:00,
2013-03-07 10:57:00,43.5,27.9,29.30,SE,135,0.0,5.1,54,0.00,,,0.00,WUHU216HW,2013-03-07 16:57:00,
2013-03-07 11:02:00,43.8,27.8,29.30,ESE,113,6.4,6.4,53,0.00,,,0.00,WUHU216HW,2013-03-07 17:02:00,
2013-03-07 11:08:00,43.5,27.4,29.30,ESE,113,7.3,7.3,53,0.00,,,0.00,WUHU216HW,2013-03-07 17:08:00,
2013-03-07 11:13:00,43.5,27.4,29.30,ESE,113,4.2,7.3,53,0.00,,,0.00,WUHU216HW,2013-03-07 17:13:00,
2013-03-07 11:18:00,43.8,27.3,29.30,East,90,6.0,6.9,52,0.00,,,0.00,WUHU216HW,2013-03-07 17:18:00,
2013-03-07 11:23:00,44.2,28.1,29.30,SE,135,1.3,6.0,53,0.00,,,0.00,WUHU216HW,2013-03-07 17:23:00,
2013-03-07 11:28:00,44.6,28.0,29.30,East,90,7.8,7.8,52,0.00,,,0.00,WUHU216HW,2013-03-07 17:28:00,
2013-03-07 11:33:00,44.9,28.3,29.30,ESE,113,3.1,9.3,52,0.00,,,0.00,WUHU216HW,2013-03-07 17:33:00,
2013-03-07 11:38:00,44.9,27.4,29.30,ESE,113,4.6,9.3,50,0.00,,,0.00,WUHU216HW,2013-03-07 17:38:00,
2013-03-07 11:43:00,45.1,28.5,29.30,ESE,113,6.9,6.9,52,0.00,,,0.00,WUHU216HW,2013-03-07 17:43:00,
2013-03-07 11:48:00,45.6,28.5,29.30,East,90,0.0,7.1,51,0.00,,,0.00,WUHU216HW,2013-03-07 17:48:00,
2013-03-07 11:53:00,45.6,28.5,29.30,ESE,113,7.6,7.6,51,0.00,,,0.00,WUHU216HW,2013-03-07 17:53:00,
2013-03-07 11:59:00,45.5,28.8,29.30,ENE,68,5.5,7.6,52,0.00,,,0.00,WUHU216HW,2013-03-07 17:59:00,
2013-03-07 12:04:00,45.6,28.5,29.29,East,90,1.1,7.6,51,0.00,,,0.00,WUHU216HW,2013-03-07 18:04:00,
2013-03-07 12:09:00,45.6,28.5,29.29,East,90,1.3,10.5,51,0.00,,,0.00,WUHU216HW,2013-03-07 18:09:00,
2013-03-07 12:14:00,45.5,28.4,29.29,ENE,68,4.0,10.5,51,0.00,,,0.00,WUHU216HW,2013-03-07 18:14:00,
2013-03-07 12:19:00,45.8,29.1,29.29,SE,135,5.1,6.7,52,0.00,,,0.00,WUHU216HW,2013-03-07 18:19:00,
2013-03-07 12:24:00,46.2,29.4,29.28,ENE,68,7.8,7.8,52,0.00,,,0.00,WUHU216HW,2013-03-07 18:24:00,
2013-03-07 12:29:00,46.0,28.8,29.28,East,90,6.0,7.8,51,0.00,,,0.00,WUHU216HW,2013-03-07 18:29:00,
2013-03-07 12:34:00,46.2,29.4,29.28,East,90,7.1,7.1,52,0.00,,,0.00,WUHU216HW,2013-03-07 18:34:00,
2013-03-07 12:39:00,46.2,29.0,29.27,ESE,113,7.1,7.1,51,0.00,,,0.00,WUHU216HW,2013-03-07 18:39:00,
2013-03-07 12:44:00,46.2,29.4,29.27,East,90,5.3,7.3,52,0.00,,,0.00,WUHU216HW,2013-03-07 18:44:00,
2013-03-07 12:50:00,46.0,29.3,29.26,NE,45,5.3,7.3,52,0.00,,,0.00,WUHU216HW,2013-03-07 18:50:00,
2013-03-07 12:55:00,46.0,29.3,29.26,East,90,3.1,5.3,52,0.00,,,0.00,WUHU216HW,2013-03-07 18:55:00,
2013-03-07 13:00:00,46.2,29.4,29.26,ENE,68,0.0,8.9,52,0.00,,,0.00,WUHU216HW,2013-03-07 19:00:00,
2013-03-07 13:05:00,46.4,30.1,29.26,ESE,113,5.1,8.9,53,0.00,,,0.00,WUHU216HW,2013-03-07 19:05:00,
2013-03-07 13:10:00,46.5,29.8,29.26,East,90,3.3,6.4,52,0.00,,,0.00,WUHU216HW,2013-03-07 19:10:00,
2013-03-07 13:15:00,46.5,29.8,29.25,ENE,68,7.8,7.8,52,0.00,,,0.00,WUHU216HW,2013-03-07 19:15:00,
2013-03-07 13:20:00,46.5,29.8,29.25,East,90,7.8,9.1,52,0.00,,,0.00,WUHU216HW,2013-03-07 19:20:00,
2013-03-07 13:25:00,46.5,29.8,29.25,East,90,8.2,9.1,52,0.00,,,0.00,WUHU216HW,2013-03-07 19:25:00,
2013-03-07 13:30:00,46.5,29.8,29.24,ENE,68,9.1,9.1,52,0.00,,,0.00,WUHU216HW,2013-03-07 19:30:00,
2013-03-07 13:35:00,46.5,30.2,29.24,ENE,68,0.6,9.1,53,0.00,,,0.00,WUHU216HW,2013-03-07 19:35:00,
2013-03-07 13:40:00,47.1,30.7,29.24,East,90,0.0,8.0,53,0.00,,,0.00,WUHU216HW,2013-03-07 19:40:00,
2013-03-07 13:45:00,47.3,30.9,29.23,ENE,68,9.6,9.6,53,0.00,,,0.00,WUHU216HW,2013-03-07 19:45:00,
2013-03-07 13:50:00,47.1,30.7,29.23,East,90,6.2,9.6,53,0.00,,,0.00,WUHU216HW,2013-03-07 19:50:00,
2013-03-07 13:55:00,47.3,30.9,29.23,NE,45,3.8,10.9,53,0.00,,,0.00,WUHU216HW,2013-03-07 19:55:00,
2013-03-07 14:00:00,47.3,30.9,29.23,SE,135,5.8,10.9,53,0.00,,,0.00,WUHU216HW,2013-03-07 20:00:00,
2013-03-07 14:06:00,47.4,31.1,29.22,ENE,68,7.3,7.3,53,0.00,,,0.00,WUHU216HW,2013-03-07 20:06:00,
2013-03-07 14:11:00,47.6,30.8,29.22,East,90,4.9,7.3,52,0.00,,,0.00,WUHU216HW,2013-03-07 20:11:00,
2013-03-07 14:16:00,47.6,30.8,29.22,East,90,5.8,7.3,52,0.00,,,0.00,WUHU216HW,2013-03-07 20:16:00,
2013-03-07 14:21:00,47.6,30.8,29.22,East,90,2.4,5.8,52,0.00,,,0.00,WUHU216HW,2013-03-07 20:21:00,
2013-03-07 14:26:00,47.8,31.9,29.22,ENE,68,6.7,6.7,54,0.00,,,0.00,WUHU216HW,2013-03-07 20:26:00,
2013-03-07 14:31:00,47.8,31.9,29.22,WSW,248,6.9,6.9,54,0.00,,,0.00,WUHU216HW,2013-03-07 20:31:00,
2013-03-07 14:36:00,48.2,32.2,29.22,WSW,248,4.6,12.3,54,0.00,,,0.00,WUHU216HW,2013-03-07 20:36:00,
2013-03-07 14:41:00,48.3,31.4,29.22,WSW,248,10.0,12.3,52,0.00,,,0.00,WUHU216HW,2013-03-07 20:41:00,
2013-03-07 14:46:00,48.0,31.1,29.22,WSW,248,1.7,11.8,52,0.00,,,0.00,WUHU216HW,2013-03-07 20:46:00,
2013-03-07 14:51:00,48.3,31.9,29.22,WSW,248,8.9,8.9,53,0.00,,,0.00,WUHU216HW,2013-03-07 20:51:00,
2013-03-07 14:56:00,48.3,31.9,29.21,WSW,248,2.9,8.9,53,0.00,,,0.00,WUHU216HW,2013-03-07 20:56:00,
2013-03-07 15:01:00,48.5,32.5,29.21,WSW,248,1.7,8.9,54,0.00,,,0.00,WUHU216HW,2013-03-07 21:01:00,
2013-03-07 15:06:00,48.5,32.5,29.21,WSW,248,6.7,8.9,54,0.00,,,0.00,WUHU216HW,2013-03-07 21:06:00,
2013-03-07 15:11:00,48.5,32.5,29.21,WSW,248,0.6,10.7,54,0.00,,,0.00,WUHU216HW,2013-03-07 21:11:00,
2013-03-07 15:16:00,48.7,32.7,29.21,WSW,248,0.0,10.7,54,0.00,,,0.00,WUHU216HW,2013-03-07 21:16:00,
2013-03-07 15:21:00,48.9,33.4,29.21,NE,45,8.7,8.7,55,0.00,,,0.00,WUHU216HW,2013-03-07 21:21:00,
2013-03-07 15:26:00,48.9,33.8,29.20,WSW,248,0.0,8.7,56,0.00,,,0.00,WUHU216HW,2013-03-07 21:26:00,
2013-03-07 15:31:00,48.7,33.2,29.20,ENE,68,10.7,10.7,55,0.00,,,0.00,WUHU216HW,2013-03-07 21:31:00,
2013-03-07 15:36:00,48.5,33.0,29.20,WSW,248,3.1,10.7,55,0.00,,,0.00,WUHU216HW,2013-03-07 21:36:00,
2013-03-07 15:42:00,48.5,33.5,29.20,ENE,68,7.1,10.7,56,0.00,,,0.00,WUHU216HW,2013-03-07 21:42:00,
2013-03-07 15:47:00,48.2,32.7,29.19,WSW,248,3.1,8.0,55,0.00,,,0.00,WUHU216HW,2013-03-07 21:47:00,
2013-03-07 15:52:00,48.0,33.0,29.19,ENE,68,8.5,8.5,56,0.00,,,0.00,WUHU216HW,2013-03-07 21:52:00,
2013-03-07 15:57:00,48.0,33.4,29.19,WSW,248,8.5,8.5,57,0.00,,,0.00,WUHU216HW,2013-03-07 21:57:00,
2013-03-07 16:02:00,47.8,32.8,29.19,ENE,68,0.0,8.5,56,0.00,,,0.00,WUHU216HW,2013-03-07 22:02:00,
2013-03-07 16:07:00,47.6,32.6,29.19,ENE,68,10.0,10.0,56,0.00,,,0.00,WUHU216HW,2013-03-07 22:07:00,
2013-03-07 16:12:00,47.4,32.4,29.18,WSW,248,6.7,10.0,56,0.00,,,0.00,WUHU216HW,2013-03-07 22:12:00,
2013-03-07 16:17:00,47.3,32.3,29.18,ENE,68,7.1,7.3,56,0.00,,,0.00,WUHU216HW,2013-03-07 22:17:00,
2013-03-07 16:22:00,47.4,32.4,29.18,ENE,68,3.3,7.3,56,0.00,,,0.00,WUHU216HW,2013-03-07 22:22:00,
2013-03-07 16:27:00,47.3,32.3,29.17,WSW,248,7.1,7.3,56,0.00,,,0.00,WUHU216HW,2013-03-07 22:27:00,
2013-03-07 16:32:00,47.3,32.7,29.17,WSW,248,5.8,10.2,57,0.00,,,0.00,WUHU216HW,2013-03-07 22:32:00,
2013-03-07 16:37:00,47.1,32.5,29.17,ENE,68,3.5,10.2,57,0.00,,,0.00,WUHU216HW,2013-03-07 22:37:00,
2013-03-07 16:42:00,46.9,32.4,29.17,ENE,68,6.2,6.9,57,0.00,,,0.00,WUHU216HW,2013-03-07 22:42:00,
2013-03-07 16:47:00,46.9,32.4,29.18,ENE,68,0.0,9.6,57,0.00,,,0.00,WUHU216HW,2013-03-07 22:47:00,
2013-03-07 16:52:00,46.5,32.0,29.17,ENE,68,9.1,10.9,57,0.00,,,0.00,WUHU216HW,2013-03-07 22:52:00,
2013-03-07 16:58:00,46.5,32.5,29.17,ENE,68,4.0,10.9,58,0.00,,,0.00,WUHU216HW,2013-03-07 22:58:00,
2013-03-07 17:03:00,46.2,32.1,29.17,NE,45,7.8,9.1,58,0.00,,,0.00,WUHU216HW,2013-03-07 23:03:00,
2013-03-07 17:08:00,46.2,32.6,29.17,ENE,68,6.4,9.1,59,0.00,,,0.00,WUHU216HW,2013-03-07 23:08:00,
2013-03-07 17:13:00,46.0,32.4,29.17,ENE,68,0.0,6.4,59,0.00,,,0.00,WUHU216HW,2013-03-07 23:13:00,
2013-03-07 17:18:00,45.5,32.0,29.17,NE,45,0.0,7.1,59,0.00,,,0.00,WUHU216HW,2013-03-07 23:18:00,
2013-03-07 17:23:00,44.9,31.9,29.17,ENE,68,7.6,7.6,60,0.00,,,0.00,WUHU216HW,2013-03-07 23:23:00,
2013-03-07 17:28:00,44.7,31.8,29.17,NE,45,0.0,7.6,60,0.00,,,0.00,WUHU216HW,2013-03-07 23:28:00,
2013-03-07 17:33:00,44.4,31.4,29.17,ENE,68,0.0,7.6,60,0.00,,,0.00,WUHU216HW,2013-03-07 23:33:00,
2013-03-07 17:38:00,44.0,31.1,29.17,ENE,68,4.2,4.9,60,0.00,,,0.00,WUHU216HW,2013-03-07 23:38:00,
2013-03-07 17:43:00,43.8,31.2,29.17,ENE,68,6.9,10.2,61,0.00,,,0.00,WUHU216HW,2013-03-07 23:43:00,
2013-03-07 17:48:00,43.5,30.9,29.17,East,90,5.3,10.2,61,0.00,,,0.00,WUHU216HW,2013-03-07 23:48:00,
2013-03-07 17:53:00,43.5,31.3,29.17,ENE,68,0.0,9.1,62,0.00,,,0.00,WUHU216HW,2013-03-07 23:53:00,
2013-03-07 17:58:00,42.9,30.7,29.18,ENE,68,0.0,5.3,62,0.00,,,0.00,WUHU216HW,2013-03-07 23:58:00,
2013-03-07 18:03:00,42.6,30.4,29.18,ENE,68,0.0,5.1,62,0.00,,,0.00,WUHU216HW,2013-03-08 00:03:00,
2013-03-07 18:08:00,42.4,30.2,29.18,ENE,68,0.0,0.0,62,0.00,,,0.00,WUHU216HW,2013-03-08 00:08:00,
2013-03-07 18:13:00,41.7,29.8,29.18,ENE,68,0.0,0.0,62,0.00,,,0.00,WUHU216HW,2013-03-08 00:13:00,
2013-03-07 18:19:00,41.5,29.8,29.18,ENE,68,0.0,0.0,63,0.00,,,0.00,WUHU216HW,2013-03-08 00:19:00,
2013-03-07 18:24:00,41.1,29.5,29.19,ENE,68,0.0,0.0,63,0.00,,,0.00,WUHU216HW,2013-03-08 00:24:00,
2013-03-07 18:29:00,40.8,29.1,29.19,ENE,68,0.0,4.2,64,0.00,,,0.00,WUHU216HW,2013-03-08 00:29:00,
2013-03-07 18:34:00,40.6,29.3,29.20,ENE,68,0.0,4.2,64,0.00,,,0.00,WUHU216HW,2013-03-08 00:34:00,
2013-03-07 18:39:00,40.2,29.0,29.20,ENE,68,0.0,0.0,64,0.00,,,0.00,WUHU216HW,2013-03-08 00:39:00,
2013-03-07 18:44:00,39.9,28.6,29.20,ENE,68,0.0,0.0,64,0.00,,,0.00,WUHU216HW,2013-03-08 00:44:00,
2013-03-07 18:49:00,39.7,28.4,29.20,ENE,68,0.0,0.0,64,0.00,,,0.00,WUHU216HW,2013-03-08 00:49:00,
2013-03-07 18:55:00,39.5,28.2,29.20,ENE,68,0.0,0.0,64,0.00,,,0.00,WUHU216HW,2013-03-08 00:55:00,
2013-03-07 19:00:00,39.3,28.4,29.20,ENE,68,0.0,0.0,65,0.00,,,0.00,WUHU216HW,2013-03-08 01:00:00,
2013-03-07 19:05:00,39.0,28.1,29.20,ENE,68,0.0,0.0,65,0.00,,,0.00,WUHU216HW,2013-03-08 01:05:00,
2013-03-07 19:10:00,39.0,28.1,29.21,NE,45,0.0,0.0,65,0.00,,,0.00,WUHU216HW,2013-03-08 01:10:00,
2013-03-07 19:15:00,38.8,27.9,29.21,NE,45,0.0,0.0,65,0.00,,,0.00,WUHU216HW,2013-03-08 01:15:00,
2013-03-07 19:20:00,38.6,28.2,29.20,NE,45,0.0,0.0,66,0.00,,,0.00,WUHU216HW,2013-03-08 01:20:00,
2013-03-07 19:25:00,38.3,27.8,29.21,NE,45,0.0,0.0,66,0.00,,,0.00,WUHU216HW,2013-03-08 01:25:00,
2013-03-07 19:30:00,38.1,27.7,29.21,NE,45,0.0,0.0,66,0.00,,,0.00,WUHU216HW,2013-03-08 01:30:00,
2013-03-07 19:35:00,38.1,28.0,29.21,ENE,68,0.0,0.0,67,0.00,,,0.00,WUHU216HW,2013-03-08 01:35:00,
2013-03-07 19:40:00,38.1,28.0,29.21,NE,45,0.0,0.0,67,0.00,,,0.00,WUHU216HW,2013-03-08 01:40:00,
2013-03-07 19:46:00,38.1,28.0,29.21,ENE,68,5.3,5.3,67,0.00,,,0.00,WUHU216HW,2013-03-08 01:46:00,
2013-03-07 19:51:00,38.1,28.0,29.21,ENE,68,0.0,5.3,67,0.00,,,0.00,WUHU216HW,2013-03-08 01:51:00,
2013-03-07 19:56:00,37.9,27.9,29.21,NE,45,0.0,5.3,67,0.00,,,0.00,WUHU216HW,2013-03-08 01:56:00,
2013-03-07 20:01:00,37.5,27.6,29.21,NE,45,0.0,0.0,67,0.00,,,0.00,WUHU216HW,2013-03-08 02:01:00,
2013-03-07 20:06:00,37.2,27.2,29.21,NE,45,0.0,0.0,67,0.00,,,0.00,WUHU216HW,2013-03-08 02:06:00,
2013-03-07 20:11:00,37.2,27.6,29.22,NE,45,0.0,0.0,68,0.00,,,0.00,WUHU216HW,2013-03-08 02:11:00,
2013-03-07 20:16:00,37.0,27.4,29.22,NE,45,0.0,0.0,68,0.00,,,0.00,WUHU216HW,2013-03-08 02:16:00,
2013-03-07 20:21:00,36.8,27.2,29.22,NE,45,5.1,5.1,68,0.00,,,0.00,WUHU216HW,2013-03-08 02:21:00,
2013-03-07 20:26:00,36.8,27.6,29.22,NE,45,0.0,5.1,69,0.00,,,0.00,WUHU216HW,2013-03-08 02:26:00,
2013-03-07 20:31:00,36.6,27.4,29.22,NE,45,0.0,0.0,69,0.00,,,0.00,WUHU216HW,2013-03-08 02:31:00,
2013-03-07 20:36:00,36.5,27.3,29.22,NE,45,0.0,0.0,69,0.00,,,0.00,WUHU216HW,2013-03-08 02:36:00,
2013-03-07 20:41:00,36.3,27.1,29.23,NE,45,0.0,0.0,69,0.00,,,0.00,WUHU216HW,2013-03-08 02:41:00,
2013-03-07 20:46:00,36.3,27.5,29.22,NE,45,0.0,0.0,70,0.00,,,0.00,WUHU216HW,2013-03-08 02:46:00,
2013-03-07 20:51:00,36.1,27.3,29.23,NE,45,0.0,0.0,70,0.00,,,0.00,WUHU216HW,2013-03-08 02:51:00,
2013-03-07 20:56:00,35.9,27.1,29.22,NE,45,0.0,0.0,70,0.00,,,0.00,WUHU216HW,2013-03-08 02:56:00,
2013-03-07 21:02:00,35.9,27.1,29.22,NE,45,0.0,0.0,70,0.00,,,0.00,WUHU216HW,2013-03-08 03:02:00,
2013-03-07 21:07:00,35.9,27.1,29.22,NE,45,0.0,0.0,70,0.00,,,0.00,WUHU216HW,2013-03-08 03:07:00,
2013-03-07 21:12:00,35.9,27.1,29.22,NE,45,0.0,0.0,70,0.00,,,0.00,WUHU216HW,2013-03-08 03:12:00,
2013-03-07 21:17:00,35.9,27.4,29.23,NE,45,0.0,0.0,71,0.00,,,0.00,WUHU216HW,2013-03-08 03:17:00,
2013-03-07 21:22:00,35.9,27.1,29.22,NE,45,0.0,0.0,70,0.00,,,0.00,WUHU216HW,2013-03-08 03:22:00,
2013-03-07 21:27:00,35.7,27.2,29.23,NE,45,0.0,0.0,71,0.00,,,0.00,WUHU216HW,2013-03-08 03:27:00,
2013-03-07 21:32:00,35.4,26.9,29.23,NE,45,0.0,0.0,71,0.00,,,0.00,WUHU216HW,2013-03-08 03:32:00,
2013-03-07 21:37:00,35.4,26.9,29.23,NE,45,0.0,0.0,71,0.00,,,0.00,WUHU216HW,2013-03-08 03:37:00,
2013-03-07 21:42:00,35.2,26.7,29.23,NE,45,0.0,0.0,71,0.00,,,0.00,WUHU216HW,2013-03-08 03:42:00,
2013-03-07 21:47:00,35.2,26.7,29.23,NE,45,0.0,0.0,71,0.00,,,0.00,WUHU216HW,2013-03-08 03:47:00,
2013-03-07 21:52:00,35.0,26.8,29.23,NE,45,0.0,0.0,72,0.00,,,0.00,WUHU216HW,2013-03-08 03:52:00,
2013-03-07 21:57:00,35.2,27.0,29.23,NE,45,0.0,6.2,72,0.00,,,0.00,WUHU216HW,2013-03-08 03:57:00,
2013-03-07 22:02:00,35.2,27.0,29.23,NE,45,0.0,6.2,72,0.00,,,0.00,WUHU216HW,2013-03-08 04:02:00,
2013-03-07 22:07:00,35.4,27.2,29.23,NE,45,0.0,0.0,72,0.00,,,0.00,WUHU216HW,2013-03-08 04:07:00,
2013-03-07 22:12:00,35.4,27.2,29.23,NE,45,0.0,0.0,72,0.00,,,0.00,WUHU216HW,2013-03-08 04:12:00,
2013-03-07 22:18:00,35.6,27.4,29.23,NE,45,0.0,0.0,72,0.00,,,0.00,WUHU216HW,2013-03-08 04:18:00,
2013-03-07 22:23:00,35.6,27.4,29.23,NE,45,0.0,0.0,72,0.00,,,0.00,WUHU216HW,2013-03-08 04:23:00,
2013-03-07 22:28:00,35.4,27.2,29.23,NE,45,0.0,0.0,72,0.00,,,0.00,WUHU216HW,2013-03-08 04:28:00,
2013-03-07 22:33:00,35.6,27.4,29.23,NE,45,0.0,0.0,72,0.00,,,0.00,WUHU216HW,2013-03-08 04:33:00,
2013-03-07 22:38:00,35.6,27.4,29.23,NE,45,0.0,0.0,72,0.00,,,0.00,WUHU216HW,2013-03-08 04:38:00,
2013-03-07 22:43:00,35.4,27.2,29.23,NE,45,0.0,0.0,72,0.00,,,0.00,WUHU216HW,2013-03-08 04:43:00,
2013-03-07 22:48:00,35.4,27.2,29.23,ENE,68,0.0,0.0,72,0.00,,,0.00,WUHU216HW,2013-03-08 04:48:00,
2013-03-07 22:53:00,35.4,27.2,29.23,ENE,68,0.0,0.0,72,0.00,,,0.00,WUHU216HW,2013-03-08 04:53:00,
2013-03-07 22:58:00,35.4,27.2,29.23,ENE,68,0.0,0.0,72,0.00,,,0.00,WUHU216HW,2013-03-08 04:58:00,